createdAt,value
2019-05-26T00:00:10.568Z,16.97
2019-05-26T00:02:39.358Z,16.25
2019-05-26T00:05:08.531Z,17.15
2019-05-26T00:07:36.972Z,17.73
2019-05-26T00:10:09.097Z,16.80
2019-05-26T00:12:40.062Z,15.30
2019-05-26T00:15:09.260Z,15.08
2019-05-26T00:17:37.754Z,15.83
2019-05-26T00:20:14.201Z,13.32
2019-05-26T00:22:43.912Z,16.05
2019-05-26T00:25:13.699Z,16.32
2019-05-26T00:27:42.149Z,15.30
2019-05-26T00:30:11.518Z,16.95
2019-05-26T00:32:40.321Z,16.75
2019-05-26T00:35:09.179Z,16.62
2019-05-26T00:37:57.228Z,16.00
2019-05-26T00:40:45.071Z,16.15
2019-05-26T00:43:13.539Z,16.62
2019-05-26T00:45:41.992Z,18.37
2019-05-26T00:48:10.428Z,18.35
2019-05-26T00:50:39.119Z,17.87
2019-05-26T00:53:07.651Z,17.35
2019-05-26T00:55:36.125Z,15.58
2019-05-26T00:58:24.220Z,17.05
2019-05-26T01:00:53.568Z,16.15
2019-05-26T01:03:22.150Z,15.32
2019-05-26T01:05:50.607Z,14.98
2019-05-26T01:08:19.404Z,17.30
2019-05-26T01:10:48.732Z,16.87
2019-05-26T01:13:17.182Z,19.98
2019-05-26T01:16:05.273Z,17.20
2019-05-26T01:18:33.960Z,17.10
2019-05-26T01:21:02.428Z,19.07
2019-05-26T01:23:30.867Z,20.25
2019-05-26T01:26:04.629Z,22.10
2019-05-26T01:28:33.360Z,23.27
2019-05-26T01:31:01.855Z,22.98
2019-05-26T01:33:32.223Z,23.57
2019-05-26T01:36:00.651Z,24.43
2019-05-26T01:38:30.093Z,23.50
2019-05-26T01:40:59.525Z,23.52
2019-05-26T01:43:27.963Z,22.75
2019-05-26T01:45:56.404Z,22.85
2019-05-26T01:48:24.827Z,22.40
2019-05-26T01:50:54.535Z,21.77
2019-05-26T01:53:23.007Z,20.62
2019-05-26T01:55:52.634Z,22.58
2019-05-26T01:58:22.352Z,21.48
2019-05-26T02:00:50.959Z,23.18
2019-05-26T02:03:19.383Z,22.48
2019-05-26T02:05:47.824Z,22.80
2019-05-26T02:08:16.235Z,24.32
2019-05-26T02:10:46.004Z,24.50
2019-05-26T02:13:14.432Z,23.32
2019-05-26T02:15:43.855Z,23.07
2019-05-26T02:18:12.687Z,22.25
2019-05-26T02:20:42.047Z,23.07
2019-05-26T02:23:10.484Z,23.80
2019-05-26T02:25:40.197Z,24.63
2019-05-26T02:28:08.987Z,26.23
2019-05-26T02:30:41.674Z,25.55
2019-05-26T02:33:10.107Z,25.70
2019-05-26T02:35:40.899Z,22.27
2019-05-26T02:38:11.259Z,22.22
2019-05-26T02:40:39.710Z,23.98
2019-05-26T02:43:30.447Z,22.52
2019-05-26T02:46:02.819Z,21.20
2019-05-26T02:48:31.315Z,23.20
2019-05-26T02:50:59.748Z,23.87
2019-05-26T02:53:29.344Z,24.75
2019-05-26T02:55:57.961Z,24.85
2019-05-26T02:58:26.387Z,25.88
2019-05-26T03:00:54.890Z,24.95
2019-05-26T03:03:24.516Z,24.75
2019-05-26T03:05:54.228Z,24.70
2019-05-26T03:08:23.189Z,24.85
2019-05-26T03:10:52.066Z,23.50
2019-05-26T03:13:20.564Z,24.05
2019-05-26T03:15:49.327Z,24.77
2019-05-26T03:18:17.853Z,21.82
2019-05-26T03:20:46.780Z,23.07
2019-05-26T03:23:16.471Z,23.07
2019-05-26T03:25:45.155Z,21.85
2019-05-26T03:28:13.875Z,21.02
2019-05-26T03:30:42.321Z,21.27
2019-05-26T03:33:10.760Z,20.00
2019-05-26T03:35:39.253Z,20.20
2019-05-26T03:38:08.120Z,18.92
2019-05-26T03:40:38.493Z,18.40
2019-05-26T03:43:07.246Z,18.30
2019-05-26T03:46:04.283Z,18.60
2019-05-26T03:48:34.098Z,16.27
2019-05-26T03:51:02.920Z,14.68
2019-05-26T03:53:31.768Z,14.68
2019-05-26T03:56:00.288Z,13.65
2019-05-26T03:58:28.730Z,15.30
2019-05-26T04:00:57.158Z,13.00
2019-05-26T04:03:25.953Z,14.07
2019-05-26T04:05:54.721Z,12.58
2019-05-26T04:08:23.157Z,12.05
2019-05-26T04:10:54.165Z,11.55
2019-05-26T04:13:22.635Z,11.78
2019-05-26T04:15:51.081Z,11.85
2019-05-26T04:18:19.518Z,10.93
2019-05-26T04:20:48.302Z,11.93
2019-05-26T04:23:17.006Z,11.90
2019-05-26T04:25:45.773Z,11.68
2019-05-26T04:28:14.200Z,10.63
2019-05-26T04:30:43.627Z,10.90
2019-05-26T04:33:12.039Z,10.45
2019-05-26T04:35:40.750Z,10.53
2019-05-26T04:38:09.533Z,10.30
2019-05-26T04:40:38.896Z,10.65
2019-05-26T04:43:07.737Z,9.35
2019-05-26T04:45:55.594Z,10.30
2019-05-26T04:48:24.032Z,9.95
2019-05-26T04:50:52.732Z,10.25
2019-05-26T04:53:21.524Z,9.08
2019-05-26T04:55:50.217Z,9.95
2019-05-26T04:58:19.944Z,9.93
2019-05-26T05:00:48.409Z,9.75
2019-05-26T05:03:16.889Z,10.23
2019-05-26T05:05:45.320Z,10.55
2019-05-26T05:08:13.757Z,9.23
2019-05-26T05:10:43.014Z,10.48
2019-05-26T05:13:13.009Z,9.80
2019-05-26T05:15:41.436Z,9.98
2019-05-26T05:18:09.961Z,10.20
2019-05-26T05:20:38.481Z,9.93
2019-05-26T05:23:06.900Z,9.40
2019-05-26T05:25:35.339Z,9.88
2019-05-26T05:28:04.666Z,9.28
2019-05-26T05:30:33.325Z,9.48
2019-05-26T05:33:02.109Z,9.38
2019-05-26T05:35:30.533Z,9.63
2019-05-26T05:37:59.280Z,9.70
2019-05-26T05:40:27.707Z,9.15
2019-05-26T05:42:56.155Z,9.70
2019-05-26T05:45:26.776Z,9.30
2019-05-26T05:47:55.219Z,9.40
2019-05-26T05:50:23.954Z,9.53
2019-05-26T05:52:52.753Z,8.95
2019-05-26T05:55:21.271Z,9.25
2019-05-26T05:57:50.696Z,9.63
2019-05-26T06:00:20.172Z,9.13
2019-05-26T06:02:48.941Z,9.90
2019-05-26T06:05:17.784Z,9.05
2019-05-26T06:07:46.247Z,9.90
2019-05-26T06:10:15.523Z,10.45
2019-05-26T06:12:43.956Z,8.75
2019-05-26T06:15:16.026Z,9.18
2019-05-26T06:17:44.083Z,8.98
2019-05-26T06:20:13.404Z,9.73
2019-05-26T06:22:42.175Z,9.13
2019-05-26T06:25:10.924Z,8.10
2019-05-26T06:27:41.309Z,7.80
2019-05-26T06:30:10.787Z,7.78
2019-05-26T06:32:39.266Z,7.87
2019-05-26T06:35:08.816Z,7.62
2019-05-26T06:37:37.631Z,7.53
2019-05-26T06:40:07.273Z,7.67
2019-05-26T06:42:35.700Z,7.47
2019-05-26T06:45:06.190Z,6.72
2019-05-26T06:47:34.643Z,7.92
2019-05-26T06:50:04.979Z,7.53
2019-05-26T06:52:33.714Z,7.78
2019-05-26T06:55:02.306Z,7.85
2019-05-26T06:57:31.042Z,7.42
2019-05-26T06:59:59.860Z,7.58
2019-05-26T07:02:28.284Z,7.08
2019-05-26T07:04:56.732Z,7.67
2019-05-26T07:07:26.072Z,6.22
2019-05-26T07:09:54.833Z,7.17
2019-05-26T07:12:23.259Z,7.75
2019-05-26T07:14:52.004Z,8.58
2019-05-26T07:17:20.798Z,7.62
2019-05-26T07:19:49.475Z,8.10
2019-05-26T07:22:18.278Z,7.92
2019-05-26T07:24:46.824Z,8.73
2019-05-26T07:27:15.575Z,8.28
2019-05-26T07:29:44.016Z,8.33
2019-05-26T07:32:12.771Z,8.60
2019-05-26T07:34:41.540Z,9.73
2019-05-26T07:37:10.282Z,9.20
2019-05-26T07:39:39.243Z,8.60
2019-05-26T07:42:10.500Z,9.73
2019-05-26T07:44:37.860Z,9.70
2019-05-26T07:47:06.299Z,10.20
2019-05-26T07:49:34.722Z,9.40
2019-05-26T07:52:03.161Z,11.40
2019-05-26T07:54:31.864Z,11.45
2019-05-26T07:57:00.294Z,10.85
2019-05-26T07:59:28.743Z,10.70
2019-05-26T08:01:57.562Z,11.33
2019-05-26T08:04:25.996Z,12.63
2019-05-26T08:06:54.700Z,11.73
2019-05-26T08:09:23.143Z,12.37
2019-05-26T08:11:51.591Z,14.35
2019-05-26T08:14:20.227Z,15.95
2019-05-26T08:16:48.957Z,14.33
2019-05-26T08:19:17.455Z,16.37
2019-05-26T08:21:45.891Z,18.25
2019-05-26T08:24:14.608Z,18.75
2019-05-26T08:26:43.060Z,22.58
2019-05-26T08:29:13.375Z,25.12
2019-05-26T08:31:41.823Z,23.10
2019-05-26T08:34:10.596Z,24.47
2019-05-26T08:36:39.299Z,23.52
2019-05-26T08:39:09.313Z,20.45
2019-05-26T08:41:37.744Z,21.40
2019-05-26T08:44:06.202Z,24.18
2019-05-26T08:46:34.902Z,19.10
2019-05-26T08:49:03.661Z,19.37
2019-05-26T08:51:32.352Z,18.12
2019-05-26T08:54:00.787Z,16.45
2019-05-26T08:56:29.228Z,17.50
2019-05-26T08:58:59.964Z,16.35
2019-05-26T09:01:28.764Z,14.98
2019-05-26T09:03:57.192Z,13.98
2019-05-26T09:06:25.935Z,15.05
2019-05-26T09:08:54.363Z,14.73
2019-05-26T09:11:23.844Z,14.95
2019-05-26T09:13:52.531Z,13.18
2019-05-26T09:16:22.120Z,10.80
2019-05-26T09:18:50.938Z,10.78
2019-05-26T09:21:19.425Z,10.93
2019-05-26T09:23:48.896Z,12.28
2019-05-26T09:26:17.337Z,11.60
2019-05-26T09:28:46.023Z,11.43
2019-05-26T09:31:14.467Z,10.68
2019-05-26T09:33:43.193Z,11.63
2019-05-26T09:36:11.947Z,12.25
2019-05-26T09:38:40.379Z,11.15
2019-05-26T09:41:14.924Z,9.70
2019-05-26T09:43:43.604Z,10.53
2019-05-26T09:46:12.333Z,10.85
2019-05-26T09:48:40.769Z,9.30
2019-05-26T09:51:09.293Z,8.90
2019-05-26T09:53:37.720Z,8.90
2019-05-26T09:56:06.155Z,9.05
2019-05-26T09:58:34.648Z,7.92
2019-05-26T10:01:03.100Z,8.43
2019-05-26T10:03:32.784Z,9.30
2019-05-26T10:06:01.262Z,8.25
2019-05-26T10:08:30.059Z,7.75
2019-05-26T10:10:58.948Z,7.75
2019-05-26T10:13:31.707Z,7.12
2019-05-26T10:15:57.996Z,6.45
2019-05-26T10:18:26.485Z,5.10
2019-05-26T10:20:55.057Z,5.62
2019-05-26T10:23:24.054Z,6.35
2019-05-26T10:25:52.558Z,5.85
2019-05-26T10:28:21.294Z,5.08
2019-05-26T10:30:50.349Z,6.00
2019-05-26T10:33:19.076Z,4.90
2019-05-26T10:35:47.895Z,4.70
2019-05-26T10:38:16.379Z,5.22
2019-05-26T10:40:45.769Z,5.10
2019-05-26T10:43:14.426Z,4.90
2019-05-26T10:45:43.020Z,4.30
2019-05-26T10:48:11.941Z,5.30
2019-05-26T10:50:40.371Z,6.00
2019-05-26T10:53:09.110Z,4.35
2019-05-26T10:55:37.804Z,5.10
2019-05-26T10:58:06.932Z,4.72
2019-05-26T11:00:37.841Z,4.45
2019-05-26T11:03:06.636Z,4.83
2019-05-26T11:05:35.444Z,4.53
2019-05-26T11:08:04.053Z,4.50
2019-05-26T11:10:32.480Z,4.90
2019-05-26T11:13:01.220Z,4.80
2019-05-26T11:15:30.920Z,4.75
2019-05-26T11:17:59.349Z,4.85
2019-05-26T11:20:28.545Z,6.17
2019-05-26T11:22:58.732Z,6.20
2019-05-26T11:25:27.228Z,6.30
2019-05-26T11:27:57.588Z,6.33
2019-05-26T11:30:27.659Z,6.75
2019-05-26T11:32:59.418Z,5.90
2019-05-26T11:35:26.755Z,7.17
2019-05-26T11:37:55.564Z,5.47
2019-05-26T11:40:24.585Z,5.60
2019-05-26T11:42:53.031Z,5.40
2019-05-26T11:45:43.535Z,5.05
2019-05-26T11:48:12.875Z,6.25
2019-05-26T11:50:42.415Z,6.60
2019-05-26T11:53:10.836Z,6.55
2019-05-26T11:55:39.544Z,6.83
2019-05-26T11:58:07.962Z,6.87
2019-05-26T12:00:36.699Z,6.65
2019-05-26T12:03:05.111Z,6.70
2019-05-26T12:05:34.931Z,7.50
2019-05-26T12:08:03.603Z,7.15
2019-05-26T12:10:33.355Z,7.58
2019-05-26T12:13:03.007Z,7.15
2019-05-26T12:15:31.448Z,7.35
2019-05-26T12:18:02.332Z,6.95
2019-05-26T12:20:31.129Z,6.40
2019-05-26T12:22:59.980Z,7.28
2019-05-26T12:25:31.790Z,6.97
2019-05-26T12:28:00.208Z,7.10
2019-05-26T12:30:29.442Z,7.15
2019-05-26T12:32:59.616Z,6.72
2019-05-26T12:35:42.087Z,6.83
2019-05-26T12:38:12.267Z,6.55
2019-05-26T12:40:41.520Z,6.47
2019-05-26T12:43:10.868Z,5.37
2019-05-26T12:45:40.655Z,6.72
2019-05-26T12:48:09.442Z,5.90
2019-05-26T12:50:38.336Z,5.65
2019-05-26T12:53:07.676Z,5.78
2019-05-26T12:55:37.097Z,5.60
2019-05-26T12:58:06.137Z,5.15
2019-05-26T13:00:48.160Z,4.30
2019-05-26T13:03:05.584Z,5.03
2019-05-26T13:05:34.039Z,4.78
2019-05-26T13:08:02.476Z,4.67
2019-05-26T13:10:30.915Z,4.95
2019-05-26T13:12:59.617Z,4.55
2019-05-26T13:15:28.122Z,4.28
2019-05-26T13:17:56.559Z,5.08
2019-05-26T13:20:25.171Z,4.30
2019-05-26T13:22:53.611Z,4.58
2019-05-26T13:25:22.349Z,3.52
2019-05-26T13:27:50.893Z,3.90
2019-05-26T13:30:21.936Z,4.22
2019-05-26T13:32:50.368Z,3.80
2019-05-26T13:35:38.138Z,4.12
2019-05-26T13:38:06.581Z,3.65
2019-05-26T13:40:34.998Z,4.17
2019-05-26T13:43:04.404Z,4.10
2019-05-26T13:45:34.732Z,4.10
2019-05-26T13:48:03.163Z,4.22
2019-05-26T13:50:51.203Z,4.20
2019-05-26T13:53:19.688Z,4.10
2019-05-26T13:55:48.255Z,3.80
2019-05-26T13:58:17.412Z,3.92
2019-05-26T14:00:48.716Z,3.77
2019-05-26T14:03:17.218Z,4.20
2019-05-26T14:05:46.040Z,4.12
2019-05-26T14:08:14.867Z,4.00
2019-05-26T14:10:43.333Z,3.30
2019-05-26T14:13:11.763Z,3.42
2019-05-26T14:15:40.188Z,3.83
2019-05-26T14:18:09.360Z,3.60
2019-05-26T14:20:44.885Z,3.80
2019-05-26T14:23:13.610Z,3.02
2019-05-26T14:25:42.381Z,3.47
2019-05-26T14:28:12.375Z,3.40
2019-05-26T14:30:40.874Z,3.30
2019-05-26T14:33:09.685Z,3.20
2019-05-26T14:35:41.267Z,3.27
2019-05-26T14:38:10.027Z,3.20
2019-05-26T14:40:38.543Z,2.95
2019-05-26T14:43:07.283Z,3.08
2019-05-26T14:45:36.187Z,3.40
2019-05-26T14:48:07.340Z,3.27
2019-05-26T14:50:40.646Z,3.27
2019-05-26T14:53:08.322Z,3.20
2019-05-26T14:55:37.128Z,3.00
2019-05-26T14:58:15.137Z,3.10
2019-05-26T15:00:35.816Z,3.25
2019-05-26T15:03:04.529Z,3.20
2019-05-26T15:05:32.947Z,3.52
2019-05-26T15:08:10.212Z,3.87
2019-05-26T15:10:38.862Z,3.05
2019-05-26T15:13:08.354Z,3.25
2019-05-26T15:15:37.080Z,2.90
2019-05-26T15:18:05.651Z,3.25
2019-05-26T15:20:34.328Z,3.10
2019-05-26T15:23:02.778Z,2.98
2019-05-26T15:25:31.232Z,3.00
2019-05-26T15:27:59.714Z,2.55
2019-05-26T15:30:29.500Z,2.87
2019-05-26T15:32:58.000Z,3.35
2019-05-26T15:35:26.886Z,2.40
2019-05-26T15:37:56.600Z,2.75
2019-05-26T15:40:26.976Z,2.90
2019-05-26T15:42:56.379Z,2.55
2019-05-26T15:45:25.052Z,2.50
2019-05-26T15:47:53.494Z,4.83
2019-05-26T15:50:21.989Z,4.95
2019-05-26T15:52:50.451Z,3.10
2019-05-26T15:55:18.955Z,2.80
2019-05-26T15:57:57.435Z,3.00
2019-05-26T16:00:25.868Z,2.62
2019-05-26T16:02:55.220Z,2.95
2019-05-26T16:05:23.653Z,2.85
2019-05-26T16:07:52.083Z,2.75
2019-05-26T16:10:20.505Z,3.40
2019-05-26T16:12:48.932Z,3.80
2019-05-26T16:15:17.540Z,3.50
2019-05-26T16:17:46.053Z,2.22
2019-05-26T16:20:16.362Z,2.50
2019-05-26T16:22:45.051Z,2.80
2019-05-26T16:25:13.804Z,2.22
2019-05-26T16:27:42.267Z,2.77
2019-05-26T16:30:10.865Z,2.62
2019-05-26T16:32:41.141Z,2.70
2019-05-26T16:35:09.959Z,3.10
2019-05-26T16:37:38.429Z,2.70
2019-05-26T16:40:08.217Z,4.58
2019-05-26T16:42:37.122Z,4.53
2019-05-26T16:45:08.556Z,6.25
2019-05-26T16:47:37.220Z,2.83
2019-05-26T16:50:07.950Z,4.20
2019-05-26T16:52:36.497Z,2.80
2019-05-26T16:55:09.651Z,3.22
2019-05-26T16:57:38.289Z,3.65
2019-05-26T17:00:10.846Z,4.70
2019-05-26T17:02:39.896Z,3.02
2019-05-26T17:05:08.888Z,3.60
2019-05-26T17:07:37.618Z,3.60
2019-05-26T17:10:08.896Z,2.83
2019-05-26T17:12:37.385Z,2.85
2019-05-26T17:15:07.430Z,2.50
2019-05-26T17:17:36.232Z,2.70
2019-05-26T17:20:07.268Z,2.37
2019-05-26T17:22:37.708Z,2.60
2019-05-26T17:25:07.544Z,2.62
2019-05-26T17:27:36.311Z,2.67
2019-05-26T17:30:06.855Z,2.50
2019-05-26T17:32:35.641Z,2.67
2019-05-26T17:35:07.502Z,2.60
2019-05-26T17:37:35.930Z,2.58
2019-05-26T17:40:06.086Z,2.95
2019-05-26T17:42:35.109Z,2.40
2019-05-26T17:45:05.556Z,2.55
2019-05-26T17:47:33.977Z,2.60
2019-05-26T17:50:02.597Z,2.90
2019-05-26T17:52:31.305Z,2.72
2019-05-26T17:55:00.094Z,2.30
2019-05-26T17:57:28.516Z,2.80
2019-05-26T17:59:57.219Z,2.75
2019-05-26T18:02:25.968Z,2.45
2019-05-26T18:04:54.391Z,2.80
2019-05-26T18:07:22.870Z,4.30
2019-05-26T18:09:51.394Z,4.95
2019-05-26T18:12:20.133Z,3.15
2019-05-26T18:14:48.605Z,2.83
2019-05-26T18:17:17.379Z,3.27
2019-05-26T18:19:46.183Z,2.80
2019-05-26T18:22:14.603Z,2.60
2019-05-26T18:24:55.097Z,3.12
2019-05-26T18:27:13.233Z,3.33
2019-05-26T18:29:41.774Z,2.83
2019-05-26T18:32:10.255Z,2.90
2019-05-26T18:34:38.758Z,3.05
2019-05-26T18:37:07.521Z,3.12
2019-05-26T18:39:35.960Z,5.20
2019-05-26T18:42:05.033Z,4.42
2019-05-26T18:44:33.473Z,3.47
2019-05-26T18:47:01.900Z,2.98
2019-05-26T18:49:30.580Z,4.30
2019-05-26T18:51:59.163Z,3.85
2019-05-26T18:54:27.620Z,2.77
2019-05-26T18:56:56.315Z,4.03
2019-05-26T18:59:25.029Z,3.00
2019-05-26T19:01:53.811Z,5.03
2019-05-26T19:04:22.400Z,2.70
2019-05-26T19:06:51.191Z,4.85
2019-05-26T19:09:21.446Z,5.22
2019-05-26T19:11:52.268Z,4.62
2019-05-26T19:14:21.032Z,3.90
2019-05-26T19:16:49.978Z,5.35
2019-05-26T19:19:18.445Z,5.70
2019-05-26T19:21:47.007Z,7.10
2019-05-26T19:24:15.443Z,10.08
2019-05-26T19:26:54.011Z,9.60
2019-05-26T19:29:22.799Z,7.55
2019-05-26T19:31:51.341Z,5.17
2019-05-26T19:34:20.340Z,4.22
2019-05-26T19:36:48.843Z,3.05
2019-05-26T19:39:17.600Z,3.52
2019-05-26T19:41:46.045Z,3.90
2019-05-26T19:44:14.939Z,3.37
2019-05-26T19:46:43.744Z,3.80
2019-05-26T19:49:12.423Z,6.12
2019-05-26T19:51:41.211Z,5.08
2019-05-26T19:54:09.789Z,3.10
2019-05-26T19:56:38.245Z,5.47
2019-05-26T19:59:07.327Z,7.78
2019-05-26T20:01:36.370Z,9.93
2019-05-26T20:04:05.951Z,4.67
2019-05-26T20:06:34.452Z,7.33
2019-05-26T20:09:03.029Z,4.40
2019-05-26T20:11:31.495Z,3.52
2019-05-26T20:14:00.243Z,6.25
2019-05-26T20:16:30.854Z,6.80
2019-05-26T20:19:00.405Z,10.72
2019-05-26T20:21:29.391Z,3.95
2019-05-26T20:23:57.997Z,5.10
2019-05-26T20:26:26.656Z,10.80
2019-05-26T20:28:55.081Z,11.88
2019-05-26T20:31:23.521Z,13.10
2019-05-26T20:33:53.294Z,17.00
2019-05-26T20:36:21.739Z,12.13
2019-05-26T20:38:51.093Z,17.82
2019-05-26T20:41:26.384Z,4.67
2019-05-26T20:43:56.443Z,5.78
2019-05-26T20:46:44.249Z,3.80
2019-05-26T20:49:12.734Z,3.55
2019-05-26T20:51:42.350Z,3.62
2019-05-26T20:54:11.104Z,3.40
2019-05-26T20:56:40.661Z,3.15
2019-05-26T20:59:09.322Z,3.60
2019-05-26T21:01:58.972Z,3.50
2019-05-26T21:04:27.415Z,3.42
2019-05-26T21:06:55.923Z,4.40
2019-05-26T21:09:24.751Z,3.85
2019-05-26T21:11:53.855Z,3.40
2019-05-26T21:14:22.636Z,3.62
2019-05-26T21:16:51.200Z,3.40
2019-05-26T21:19:19.639Z,3.37
2019-05-26T21:21:48.408Z,3.65
2019-05-26T21:24:17.194Z,3.58
2019-05-26T21:26:45.631Z,3.80
2019-05-26T21:29:14.222Z,3.60
2019-05-26T21:31:42.892Z,3.42
2019-05-26T21:34:12.926Z,3.40
2019-05-26T21:36:41.659Z,3.70
2019-05-26T21:39:10.080Z,3.87
2019-05-26T21:41:38.531Z,3.50
2019-05-26T21:44:08.462Z,3.30
2019-05-26T21:46:37.248Z,3.55
2019-05-26T21:49:05.959Z,3.95
2019-05-26T21:51:34.441Z,3.98
2019-05-26T21:54:07.966Z,3.72
2019-05-26T21:56:37.896Z,3.75
2019-05-26T21:59:06.631Z,3.77
2019-05-26T22:01:35.087Z,4.50
2019-05-26T22:04:03.722Z,3.70
2019-05-26T22:06:32.200Z,3.95
2019-05-26T22:09:00.823Z,3.90
2019-05-26T22:11:29.316Z,4.30
2019-05-26T22:13:57.779Z,4.50
2019-05-26T22:16:27.560Z,4.30
2019-05-26T22:18:59.947Z,4.17
2019-05-26T22:21:26.776Z,4.40
2019-05-26T22:23:55.215Z,4.40
2019-05-26T22:26:23.723Z,5.10
2019-05-26T22:28:52.446Z,4.10
2019-05-26T22:31:21.290Z,4.55
2019-05-26T22:33:50.787Z,4.55
2019-05-26T22:36:19.220Z,4.42
2019-05-26T22:38:49.062Z,4.72
2019-05-26T22:41:18.398Z,4.53
2019-05-26T22:43:46.819Z,4.67
2019-05-26T22:46:15.684Z,4.28
2019-05-26T22:48:53.272Z,5.08
2019-05-26T22:51:21.713Z,4.72
2019-05-26T22:53:50.472Z,4.90
2019-05-26T22:56:19.284Z,4.78
2019-05-26T22:58:47.740Z,4.95
2019-05-26T23:01:16.667Z,4.60
2019-05-26T23:03:45.215Z,4.20
2019-05-26T23:06:13.735Z,6.03
2019-05-26T23:08:42.720Z,5.28
2019-05-26T23:11:12.350Z,5.53
2019-05-26T23:13:40.797Z,4.65
2019-05-26T23:16:09.528Z,4.85
2019-05-26T23:18:39.032Z,4.70
2019-05-26T23:21:07.457Z,4.90
2019-05-26T23:23:36.215Z,4.78
2019-05-26T23:26:04.988Z,4.75
2019-05-26T23:28:38.205Z,5.47
2019-05-26T23:31:06.651Z,4.72
2019-05-26T23:33:35.105Z,4.92
2019-05-26T23:36:03.678Z,5.70
2019-05-26T23:38:32.108Z,4.62
2019-05-26T23:41:00.548Z,5.30
2019-05-26T23:43:29.058Z,5.30
2019-05-26T23:45:57.802Z,5.10
2019-05-26T23:48:26.242Z,5.12
2019-05-26T23:50:55.088Z,5.42
2019-05-26T23:53:24.791Z,4.97
2019-05-26T23:55:53.240Z,5.12
2019-05-26T23:58:21.908Z,5.03
